Aeroporto :
LOGIN :

Iscrizione | Disclaimer

   EN    FR    IT 

 










Sommario :    VFR   VFR Marginale   IFR   IFR Intensivo   IFR Molto Intensivo
Visibilità : 
Base nubi : 
>= 8 km
>= 3000ft
5 / 8 km
1000 / 3000 ft
1500m / 5 km
500 / 1000 ft
800 / 1500m
200 / 500 ft
< 800m
< 200 ft
Simboli :   Temporali  Nebbia  Neve Forte  Precipitazioni Forti  Vento > 20 kt
SIGMETs :   Varie  Temporali  Ghiacco  Turbolenza  Onda orograficha  Ceneri Vulcaniche






- Altitudine del aeroporto : 268 ft
- Codice IATA : BFS


EGAA - Belfast Aldergrove

ULTIMO METAR :
  • 160650Z 20009KT 9999 FEW025 02/01 Q0990

METARs OBSOLETI :
  • 160620Z 20010KT 9999 FEW025 02/01 Q0990
  • 160550Z 20011KT 9999 FEW005 01/01 Q0989
  • 160520Z 21009KT 9999 SCT003 BKN007 01/01 Q0989
  • 160450Z 22010KT 9999 BKN004 02/02 Q0989
  • 160420Z 22007KT 9000 BKN004 BKN007 01/01 Q0988

TAF TAF EGAA
Valido dal 16 a 06 ore il 17 a 06 ore UTC


160502Z 1606/1706 22011KT 9999 FEW012 SCT025
PROB30
TEMPO 1606/1609 2000 BR BKN003
TEMPO 1609/1703 7000 -SHRA SCT008 BKN012
PROB30
TEMPO 1611/1615 22016G26KT
PROB30
TEMPO 1616/1703 BKN007
PROB30 1703/1706 1200 BR BKN003



MetMap, La meteo Aeronautica in un colpo d'occhio ! - Copyright ORBIFLY Dicembre 2007 - Disclaimer

ORBIFLY MET'MAP TEAM :

Programmazione e sviluppo : Alexandra Zaïnal
Concezione : Baudouin d'Aumeries
Aiuto per la programmazione : Marc-Olivier Méhu
Supporto tecnico e logistico : Manuel Goepfert
Aiuto per la traduzione : Arnaldo La Scala

Contatto : metmap@orbifly.com




FONTI E CREDITI :

   NOAA